ESSV/VBY METAR and TAF weather

Enter ICAO airport designator
Station Type Date Time Source
ESSV METAR 2020/09/20 11:50 UTC NOAA

ESSV 201150Z 22014KT 9999 BKN012 14/11 Q1021


Station Type Date Time Source
ESSV Decoded METAR 2020/09/20 11:50 UTC NOAA

Visby Flygplats, Sweden (ESSV) 57-40N 018-21E 47M
Sep 20, 2020 - 07:50 AM EDT / 2020.09.20 1150 UTC
Wind: from the SW (220 degrees) at 16 MPH (14 KT):0
Visibility: greater than 7 mile(s):0
Sky conditions: mostly cloudy
Temperature: 57 F (14 C)
Dew Point: 51 F (11 C)
Relative Humidity: 82%
Pressure (altimeter): 30.15 in. Hg (1021 hPa)
ob: ESSV 201150Z 22014KT 9999 BKN012 14/11 Q1021
cycle: 12

Station Type Date Time Source
ESSV TAF 2017/09/20 09:39 UTC NOAA

TAF COR TAF COR ESSV 200840Z 2009/2021 10005KT 9999 BKN030 PROB40 2009/2016 4000 TS SHRA BKN015CB

Example: see airport list